Time;durP1;ratioP1;P1;durP2;ratioP2;P2;SDS_P1;SDS_P2;PMS_P1;PMS_P2;Temp;Humidity;BMP_temperature;BMP_pressure;BME280_temperature;BME280_humidity;BME280_pressure;Samples;Min_cycle;Max_cycle;Signal;HPM_P1;HPM_P2
2022/04/19 00:02:06;;;;;;;6.10;5.22;;;11.80;99.90;;;;;;5003738;28;20242;-75
2022/04/19 00:04:33;;;;;;;5.28;4.70;;;11.80;99.90;;;;;;5005252;28;20215;-75
2022/04/19 00:07:00;;;;;;;6.20;4.38;;;11.80;99.90;;;;;;5012039;28;20680;-74
2022/04/19 00:09:27;;;;;;;5.07;4.05;;;11.70;99.90;;;;;;5013772;28;20635;-83
2022/04/19 00:11:54;;;;;;;6.50;4.50;;;11.70;99.90;;;;;;5011858;28;20933;-81
2022/04/19 00:14:21;;;;;;;6.67;5.23;;;11.70;99.90;;;;;;5011577;28;20200;-75
2022/04/19 00:16:49;;;;;;;6.53;4.70;;;11.70;99.90;;;;;;5006630;28;20197;-75
2022/04/19 00:19:16;;;;;;;7.70;5.53;;;11.60;99.90;;;;;;5013149;28;20683;-80
2022/04/19 00:21:43;;;;;;;6.37;5.30;;;11.60;99.90;;;;;;5012932;28;20716;-78
2022/04/19 00:24:10;;;;;;;6.37;5.50;;;11.60;99.90;;;;;;5004904;28;21294;-78
2022/04/19 00:26:37;;;;;;;5.88;5.38;;;11.60;99.90;;;;;;5012377;28;20647;-78
2022/04/19 00:29:04;;;;;;;5.27;4.77;;;11.60;99.90;;;;;;5007404;28;20209;-77
2022/04/19 00:31:31;;;;;;;6.87;4.70;;;11.50;99.90;;;;;;5010895;28;20250;-78
2022/04/19 00:33:59;;;;;;;5.27;4.77;;;11.50;99.90;;;;;;5010859;28;20205;-79
2022/04/19 00:36:28;;;;;;;4.27;3.87;;;11.50;99.90;;;;;;5011765;28;20200;-76
2022/04/19 00:38:56;;;;;;;6.87;4.90;;;11.30;99.90;;;;;;5012441;28;20295;-79
2022/04/19 00:41:23;;;;;;;5.00;4.50;;;11.20;99.90;;;;;;5010334;28;20234;-79
2022/04/19 00:43:50;;;;;;;5.10;3.90;;;11.20;99.90;;;;;;4999021;28;20271;-73
2022/04/19 00:46:17;;;;;;;8.50;5.70;;;11.20;99.90;;;;;;5010558;28;20207;-78
2022/04/19 00:48:44;;;;;;;4.73;4.30;;;11.30;99.90;;;;;;5010012;28;20201;-80
2022/04/19 00:51:13;;;;;;;8.00;5.30;;;11.20;99.90;;;;;;4999484;28;20255;-77
2022/04/19 00:53:42;;;;;;;7.90;5.37;;;11.20;99.90;;;;;;5009435;28;20619;-77
2022/04/19 00:56:09;;;;;;;5.88;4.60;;;11.20;99.90;;;;;;5011796;28;20200;-74
2022/04/19 00:58:36;;;;;;;5.68;4.90;;;11.30;99.90;;;;;;5010040;28;20209;-76
2022/04/19 01:01:04;;;;;;;4.67;4.13;;;11.40;99.90;;;;;;5007683;28;20752;-83
2022/04/19 01:03:31;;;;;;;8.10;5.43;;;11.40;99.90;;;;;;5008718;28;20243;-81
2022/04/19 01:05:59;;;;;;;7.47;6.70;;;11.30;99.90;;;;;;5006844;28;20205;-77
2022/04/19 01:08:29;;;;;;;7.67;6.63;;;11.30;99.90;;;;;;5000546;28;20250;-81
2022/04/19 01:13:37;;;;;;;6.93;5.83;;;11.30;99.90;;;;;;5005535;28;20291;-78
2022/04/19 01:16:04;;;;;;;9.10;5.87;;;11.30;99.90;;;;;;5006993;28;20266;-83
2022/04/19 01:18:32;;;;;;;10.53;6.37;;;11.30;99.90;;;;;;5010720;28;20588;-77
2022/04/19 01:20:59;;;;;;;7.10;5.43;;;11.30;99.90;;;;;;5008986;28;20204;-76
2022/04/19 01:23:28;;;;;;;6.87;4.90;;;11.30;99.90;;;;;;5010803;28;20255;-76
2022/04/19 01:25:57;;;;;;;8.43;5.37;;;11.30;99.90;;;;;;4994572;28;20296;-74
2022/04/19 01:28:24;;;;;;;5.77;4.90;;;11.30;99.90;;;;;;5008317;28;20283;-77
2022/04/19 01:30:54;;;;;;;5.20;4.63;;;11.30;99.90;;;;;;5010817;28;20750;-77
2022/04/19 01:33:21;;;;;;;5.03;4.50;;;11.20;99.90;;;;;;5008720;28;20218;-79
2022/04/19 01:35:49;;;;;;;5.13;4.67;;;11.30;99.90;;;;;;5009734;28;20291;-80
2022/04/19 01:38:16;;;;;;;8.33;6.03;;;11.20;99.90;;;;;;5011766;28;20200;-78
2022/04/19 01:40:44;;;;;;;9.80;4.73;;;11.30;99.90;;;;;;4993335;28;20707;-74
2022/04/19 01:43:11;;;;;;;6.57;4.55;;;11.20;99.90;;;;;;4992141;28;20287;-76
2022/04/19 01:45:38;;;;;;;6.37;4.47;;;11.20;99.90;;;;;;5002646;28;20209;-78
2022/04/19 01:48:06;;;;;;;6.00;4.83;;;11.10;99.90;;;;;;5000532;28;20635;-79
2022/04/19 01:50:33;;;;;;;7.77;5.20;;;11.10;99.90;;;;;;5007975;28;20241;-78
2022/04/19 01:53:00;;;;;;;7.47;5.57;;;11.20;99.90;;;;;;5011423;28;20209;-80
2022/04/19 01:55:27;;;;;;;6.37;4.87;;;11.10;99.90;;;;;;5009744;28;20218;-77
2022/04/19 01:57:57;;;;;;;5.70;5.20;;;11.10;99.90;;;;;;5011546;28;20204;-82
2022/04/19 02:00:25;;;;;;;7.83;5.20;;;11.10;99.90;;;;;;5008218;28;20212;-76
2022/04/19 02:02:55;;;;;;;9.20;4.87;;;11.00;99.90;;;;;;4999220;28;20228;-79
2022/04/19 02:05:22;;;;;;;8.37;6.47;;;11.10;99.90;;;;;;5009456;28;20756;-81
2022/04/19 02:07:49;;;;;;;6.20;4.80;;;11.20;99.90;;;;;;5009403;28;20212;-75
2022/04/19 02:10:18;;;;;;;5.97;5.37;;;11.00;99.90;;;;;;5010186;28;20643;-81
2022/04/19 02:12:45;;;;;;;6.83;6.10;;;11.00;99.90;;;;;;5009608;28;20208;-78
2022/04/19 02:15:15;;;;;;;5.13;4.63;;;11.00;99.90;;;;;;5005603;28;20624;-78
2022/04/19 02:17:46;;;;;;;8.23;5.47;;;10.90;99.90;;;;;;5001690;28;20255;-79
2022/04/19 02:20:14;;;;;;;6.13;5.43;;;11.10;99.90;;;;;;4996123;28;20205;-78
2022/04/19 02:22:42;;;;;;;8.37;5.23;;;11.00;99.90;;;;;;4998233;28;20618;-77
2022/04/19 02:25:11;;;;;;;6.27;5.00;;;11.10;99.90;;;;;;4999217;28;20678;-79
2022/04/19 02:27:40;;;;;;;5.30;4.07;;;11.30;99.90;;;;;;4995946;28;20688;-78
2022/04/19 02:30:13;;;;;;;8.57;5.57;;;11.40;99.90;;;;;;5003750;28;20220;-78
2022/04/19 02:32:42;;;;;;;13.23;5.60;;;11.50;99.90;;;;;;5010547;28;20208;-76
2022/04/19 02:35:10;;;;;;;6.10;5.23;;;11.50;99.90;;;;;;5003804;28;20694;-80
2022/04/19 02:37:38;;;;;;;7.20;4.87;;;11.60;99.90;;;;;;5014462;28;20286;-77
2022/04/19 02:40:07;;;;;;;5.00;4.60;;;11.60;99.90;;;;;;5001778;28;20240;-79
2022/04/19 02:42:34;;;;;;;5.50;4.50;;;11.60;99.90;;;;;;5008709;28;20653;-77
2022/04/19 02:45:03;;;;;;;4.87;4.47;;;11.50;99.90;;;;;;5008649;28;20706;-77
2022/04/19 02:47:31;;;;;;;6.27;4.87;;;11.50;99.90;;;;;;5004949;28;20208;-75
2022/04/19 02:49:59;;;;;;;5.83;4.60;;;11.60;99.90;;;;;;5009928;28;20604;-75
2022/04/19 02:52:26;;;;;;;5.23;4.73;;;11.50;99.90;;;;;;5005838;28;20211;-75
2022/04/19 02:54:53;;;;;;;5.90;5.30;;;11.60;99.90;;;;;;5001113;28;20640;-75
2022/04/19 02:57:20;;;;;;;6.43;4.53;;;11.60;99.90;;;;;;5006591;28;20215;-76
2022/04/19 02:59:47;;;;;;;7.93;5.13;;;11.70;99.90;;;;;;5001103;28;20275;-77
2022/04/19 03:02:14;;;;;;;5.27;4.77;;;11.70;99.90;;;;;;5005006;28;20227;-78
2022/04/19 03:04:41;;;;;;;6.77;4.37;;;11.70;99.90;;;;;;5002596;28;20224;-76
2022/04/19 03:07:13;;;;;;;8.87;4.23;;;11.80;99.90;;;;;;5006095;28;20204;-78
2022/04/19 03:09:41;;;;;;;6.70;5.70;;;11.90;99.90;;;;;;5010329;28;20582;-79
2022/04/19 03:12:10;;;;;;;6.27;5.00;;;11.90;99.90;;;;;;5009948;28;20200;-78
2022/04/19 03:14:37;;;;;;;5.72;5.10;;;11.90;99.90;;;;;;5009252;28;20208;-81
2022/04/19 03:17:05;;;;;;;6.75;4.63;;;11.80;99.90;;;;;;5009129;28;20274;-78
2022/04/19 03:19:33;;;;;;;4.97;4.50;;;11.70;99.90;;;;;;4997212;28;20212;-78
2022/04/19 03:21:59;;;;;;;6.47;4.90;;;11.70;99.90;;;;;;5004168;28;20209;-78
2022/04/19 03:29:56;;;;;;;8.80;5.37;;;11.80;99.90;;;;;;5005928;28;20212;-80
2022/04/19 03:32:23;;;;;;;5.57;5.07;;;11.80;99.90;;;;;;5006419;28;20270;-80
2022/04/19 03:34:50;;;;;;;5.97;5.37;;;11.80;99.90;;;;;;5001641;28;20259;-77
2022/04/19 03:37:17;;;;;;;6.80;4.87;;;11.80;99.90;;;;;;5007856;28;20259;-77
2022/04/19 03:39:46;;;;;;;6.67;5.30;;;11.80;99.90;;;;;;5006154;28;20679;-80
2022/04/19 03:42:13;;;;;;;6.22;5.63;;;11.90;99.90;;;;;;5012575;28;20216;-76
2022/04/19 03:44:40;;;;;;;11.35;6.45;;;11.90;99.90;;;;;;5005200;28;20348;-75
2022/04/19 03:47:10;;;;;;;8.83;6.90;;;11.80;99.90;;;;;;5014620;28;20266;-76
2022/04/19 03:49:37;;;;;;;7.97;6.07;;;11.80;99.90;;;;;;5004326;28;20247;-77
2022/04/19 03:52:06;;;;;;;9.33;6.30;;;11.80;99.90;;;;;;5013199;28;20262;-76
2022/04/19 03:54:34;;;;;;;9.45;6.47;;;11.90;99.90;;;;;;5007008;28;20212;-75
2022/04/19 03:57:04;;;;;;;11.43;7.03;;;11.90;99.90;;;;;;5001696;28;20205;-75
2022/04/19 03:59:31;;;;;;;9.27;7.80;;;12.00;99.90;;;;;;5009543;28;20759;-74
2022/04/19 04:01:58;;;;;;;11.13;7.57;;;12.00;99.90;;;;;;5005720;28;20263;-76
2022/04/19 04:04:26;;;;;;;11.17;7.30;;;12.00;99.90;;;;;;5005877;28;20232;-76
2022/04/19 04:06:53;;;;;;;10.27;8.20;;;11.90;99.90;;;;;;4990029;28;20216;-75
2022/04/19 04:09:20;;;;;;;13.80;7.80;;;12.00;99.90;;;;;;5005167;28;20212;-76
2022/04/19 04:11:47;;;;;;;9.50;8.50;;;12.00;99.90;;;;;;5005227;28;20235;-75
2022/04/19 04:14:16;;;;;;;9.07;7.80;;;12.00;99.90;;;;;;5007025;28;20217;-76
2022/04/19 04:16:43;;;;;;;10.00;7.85;;;12.00;99.90;;;;;;5007215;28;20854;-75
2022/04/19 04:19:10;;;;;;;11.93;8.63;;;12.10;99.90;;;;;;5001299;28;20204;-75
2022/04/19 04:21:37;;;;;;;9.80;7.93;;;12.10;99.90;;;;;;5011076;28;20578;-75
2022/04/19 04:24:04;;;;;;;11.05;7.57;;;12.10;99.90;;;;;;5002983;28;20264;-75
2022/04/19 04:26:31;;;;;;;9.70;7.73;;;12.10;99.90;;;;;;5011457;28;20208;-74
2022/04/19 04:28:58;;;;;;;11.20;8.70;;;12.00;99.90;;;;;;5012329;28;20664;-74
2022/04/19 04:31:26;;;;;;;9.48;7.78;;;12.00;99.90;;;;;;5003163;28;20204;-74
2022/04/19 04:33:53;;;;;;;18.58;8.98;;;12.10;99.90;;;;;;5006925;28;20204;-74
2022/04/19 04:36:20;;;;;;;12.37;10.03;;;12.10;99.90;;;;;;5006380;28;20208;-74
2022/04/19 04:38:48;;;;;;;11.63;8.88;;;12.10;99.90;;;;;;5009971;28;20204;-74
2022/04/19 04:41:15;;;;;;;11.60;8.55;;;12.10;99.90;;;;;;5007453;28;20205;-74
2022/04/19 04:43:42;;;;;;;11.13;8.40;;;12.10;99.90;;;;;;5007326;28;20266;-75
2022/04/19 04:51:39;;;;;;;15.25;8.77;;;12.10;99.90;;;;;;5007607;28;20223;-75
2022/04/19 04:54:06;;;;;;;14.30;9.07;;;12.10;99.90;;;;;;5012345;28;20262;-75
2022/04/19 04:56:34;;;;;;;14.63;9.05;;;12.10;99.90;;;;;;5010881;28;20205;-74
2022/04/19 04:59:01;;;;;;;12.60;8.90;;;12.20;99.90;;;;;;5011401;28;20200;-74
2022/04/19 05:01:28;;;;;;;10.27;9.18;;;12.10;99.90;;;;;;5005060;28;20274;-74
2022/04/19 05:03:57;;;;;;;12.87;9.67;;;12.00;99.90;;;;;;5008373;28;20294;-74
2022/04/19 05:06:24;;;;;;;11.68;8.40;;;12.20;99.90;;;;;;5005621;28;20738;-74
2022/04/19 05:08:51;;;;;;;13.20;8.93;;;12.10;99.90;;;;;;5011665;28;20258;-75
2022/04/19 05:11:18;;;;;;;14.07;9.45;;;12.10;99.90;;;;;;5010252;28;20242;-74
2022/04/19 05:13:44;;;;;;;14.75;9.13;;;12.10;99.90;;;;;;5007378;28;20279;-74
2022/04/19 05:16:12;;;;;;;15.32;9.45;;;12.20;99.90;;;;;;5005961;28;20247;-74
2022/04/19 05:18:39;;;;;;;20.23;9.37;;;12.30;99.90;;;;;;5008411;28;20255;-74
2022/04/19 05:21:08;;;;;;;11.40;8.47;;;12.30;99.90;;;;;;5010468;28;20286;-74
2022/04/19 05:23:35;;;;;;;15.00;8.05;;;12.20;99.90;;;;;;5011143;28;20250;-74
2022/04/19 05:26:02;;;;;;;10.90;9.20;;;12.30;99.90;;;;;;4997973;28;20208;-75
2022/04/19 05:28:30;;;;;;;12.20;8.73;;;12.40;99.90;;;;;;5012424;28;20262;-75
2022/04/19 05:30:57;;;;;;;11.90;8.50;;;12.30;99.90;;;;;;5007347;28;20739;-74
2022/04/19 05:33:24;;;;;;;11.73;10.53;;;12.30;99.90;;;;;;5008343;28;20274;-74
2022/04/19 05:35:51;;;;;;;10.80;8.53;;;12.30;99.90;;;;;;5001928;28;20271;-74
2022/04/19 05:38:19;;;;;;;10.60;8.63;;;12.30;99.90;;;;;;5004298;28;20204;-74
2022/04/19 05:40:46;;;;;;;11.83;8.53;;;12.40;99.90;;;;;;5003001;28;20254;-75
2022/04/19 05:43:13;;;;;;;11.90;8.50;;;12.50;99.90;;;;;;5001196;28;20274;-75
2022/04/19 05:45:40;;;;;;;10.17;7.37;;;12.80;99.90;;;;;;5008329;28;20212;-74
2022/04/19 05:48:08;;;;;;;8.75;7.18;;;12.40;99.90;;;;;;5005651;28;20649;-76
2022/04/19 05:50:35;;;;;;;10.77;6.60;;;12.40;99.90;;;;;;5005049;28;20246;-75
2022/04/19 05:53:02;;;;;;;10.13;8.47;;;12.40;99.90;;;;;;5010217;28;20262;-75
2022/04/19 05:55:32;;;;;;;8.57;6.40;;;12.40;99.90;;;;;;5003570;28;20259;-79
2022/04/19 05:57:59;;;;;;;10.50;7.47;;;12.50;99.90;;;;;;5008939;28;20640;-76
2022/04/19 06:00:26;;;;;;;9.05;7.97;;;12.50;99.90;;;;;;5009597;28;20573;-79
2022/04/19 06:05:37;;;;;;;9.27;7.38;;;12.50;99.90;;;;;;5004257;28;20306;-76
2022/04/19 06:08:05;;;;;;;12.77;7.27;;;12.40;99.90;;;;;;5006864;28;20683;-77
2022/04/19 06:10:33;;;;;;;10.23;7.20;;;12.30;99.90;;;;;;5006034;28;20734;-77
2022/04/19 06:13:00;;;;;;;9.63;6.65;;;12.40;99.90;;;;;;5006338;28;20212;-80
2022/04/19 06:15:27;;;;;;;11.80;7.67;;;12.40;99.90;;;;;;5007628;28;20212;-81
2022/04/19 06:17:54;;;;;;;12.13;8.52;;;12.40;99.90;;;;;;5005210;28;20212;-81
2022/04/19 06:20:22;;;;;;;10.85;7.68;;;12.30;99.90;;;;;;5004614;28;20232;-82
2022/04/19 06:22:49;;;;;;;13.93;7.70;;;12.30;99.90;;;;;;5007959;28;20204;-79
2022/04/19 06:25:16;;;;;;;13.30;8.33;;;12.20;99.90;;;;;;4999291;28;20282;-79
2022/04/19 06:27:44;;;;;;;14.40;9.13;;;12.20;99.90;;;;;;5001072;28;20246;-83
2022/04/19 06:30:12;;;;;;;8.83;7.90;;;12.10;99.90;;;;;;5020826;28;20690;-82
2022/04/19 06:32:40;;;;;;;8.80;7.30;;;12.10;99.90;;;;;;5010695;28;20259;-78
2022/04/19 06:35:08;;;;;;;13.57;8.17;;;12.10;99.90;;;;;;5010624;28;20676;-77
2022/04/19 06:37:35;;;;;;;9.57;7.90;;;12.20;99.90;;;;;;5011561;28;20208;-77
2022/04/19 06:40:05;;;;;;;13.13;8.57;;;12.30;99.90;;;;;;5016006;28;20265;-77
2022/04/19 06:42:33;;;;;;;14.17;8.07;;;12.30;99.90;;;;;;5004354;28;20208;-77
2022/04/19 06:45:02;;;;;;;10.33;7.00;;;12.30;99.90;;;;;;5010353;28;20263;-80
2022/04/19 06:47:29;;;;;;;15.30;9.05;;;12.30;99.90;;;;;;5010043;28;20258;-77
2022/04/19 06:49:58;;;;;;;14.73;9.07;;;12.40;99.90;;;;;;5007115;28;20208;-78
2022/04/19 06:52:25;;;;;;;10.57;7.87;;;12.40;99.90;;;;;;5003061;28;20205;-78
2022/04/19 06:54:52;;;;;;;15.32;10.02;;;12.40;99.90;;;;;;5007347;28;20676;-78
2022/04/19 06:57:19;;;;;;;12.23;10.43;;;12.40;99.90;;;;;;5009210;28;20208;-78
2022/04/19 06:59:46;;;;;;;14.90;9.50;;;12.40;99.90;;;;;;5005009;28;20647;-78
2022/04/19 07:02:15;;;;;;;12.07;8.37;;;12.40;99.90;;;;;;5006196;28;20243;-79
2022/04/19 07:04:43;;;;;;;11.30;9.35;;;12.30;99.90;;;;;;5006666;28;20339;-78
2022/04/19 07:07:11;;;;;;;13.90;8.73;;;12.30;99.90;;;;;;5004727;28;20241;-79
2022/04/19 07:09:39;;;;;;;16.07;9.40;;;12.20;99.90;;;;;;5004331;28;20254;-77
2022/04/19 07:12:07;;;;;;;12.38;8.50;;;12.20;99.90;;;;;;5005188;28;20213;-81
2022/04/19 07:14:36;;;;;;;10.45;8.38;;;12.30;99.90;;;;;;5012015;28;20216;-74
2022/04/19 07:17:03;;;;;;;13.05;8.27;;;12.40;99.90;;;;;;5007857;28;20202;-75
2022/04/19 07:26:37;;;;;;;10.53;8.90;;;12.40;99.90;;;;;;5011957;28;20262;-74
2022/04/19 07:27:48;;;;;;;10.40;8.87;;;12.40;99.90;;;;;;5012691;28;20199;-78
2022/04/19 07:30:16;;;;;;;10.33;8.43;;;12.40;99.90;;;;;;5011015;28;20827;-72
2022/04/19 07:32:44;;;;;;;11.77;8.00;;;12.30;99.90;;;;;;5014325;28;20209;-73
2022/04/19 07:35:12;;;;;;;11.97;8.93;;;12.40;99.90;;;;;;5014172;28;20258;-74
2022/04/19 07:37:39;;;;;;;11.57;8.60;;;12.60;99.90;;;;;;5014690;28;20650;-74
2022/04/19 07:40:07;;;;;;;11.23;8.90;;;12.60;99.90;;;;;;5013815;28;20730;-75
2022/04/19 07:42:37;;;;;;;13.63;9.57;;;12.60;99.90;;;;;;5010167;28;20200;-75
2022/04/19 07:45:05;;;;;;;10.47;7.93;;;12.30;99.90;;;;;;5002996;28;20267;-77
2022/04/19 07:47:33;;;;;;;15.13;8.77;;;12.30;99.90;;;;;;5005030;28;20211;-75
2022/04/19 07:50:00;;;;;;;12.43;9.50;;;12.20;99.90;;;;;;5013162;28;20204;-77
2022/04/19 07:52:28;;;;;;;15.20;10.67;;;12.30;99.90;;;;;;5011135;28;20211;-77
2022/04/19 07:54:55;;;;;;;16.88;9.93;;;12.30;99.90;;;;;;5010873;28;20639;-80
2022/04/19 07:57:22;;;;;;;12.70;9.20;;;12.40;99.90;;;;;;5010786;28;20285;-82
2022/04/19 07:59:53;;;;;;;12.63;9.10;;;12.40;99.90;;;;;;5013711;28;20212;-78
2022/04/19 08:02:23;;;;;;;14.57;10.20;;;12.40;99.90;;;;;;5004922;28;20300;-80
2022/04/19 08:04:51;;;;;;;13.67;9.17;;;12.20;99.90;;;;;;5012096;28;20239;-80
2022/04/19 08:07:18;;;;;;;8.73;7.83;;;12.20;99.90;;;;;;5012747;28;20275;-81
2022/04/19 08:09:46;;;;;;;11.65;7.60;;;12.20;99.90;;;;;;5013537;28;20205;-83
2022/04/19 08:12:14;;;;;;;13.60;8.50;;;12.30;99.90;;;;;;5003257;28;20204;-81
2022/04/19 08:14:41;;;;;;;10.15;7.88;;;12.30;99.90;;;;;;5001597;28;20217;-79
2022/04/19 08:17:08;;;;;;;8.73;7.83;;;12.40;99.90;;;;;;5011617;28;20218;-86
2022/04/19 08:19:35;;;;;;;12.20;8.70;;;12.40;99.90;;;;;;5010652;28;20509;-88
2022/04/19 08:22:02;;;;;;;16.63;9.93;;;12.30;99.90;;;;;;5013428;28;20691;-76
2022/04/19 08:24:29;;;;;;;13.30;9.13;;;12.30;99.90;;;;;;5011633;28;20274;-74
2022/04/19 08:26:58;;;;;;;9.20;8.23;;;12.30;99.90;;;;;;5013477;28;20262;-78
2022/04/19 08:29:25;;;;;;;12.45;9.60;;;12.40;99.90;;;;;;5012333;28;20561;-77
2022/04/19 08:31:52;;;;;;;12.70;8.20;;;12.50;99.90;;;;;;5010365;28;20220;-77
2022/04/19 08:34:19;;;;;;;10.20;7.53;;;12.50;99.90;;;;;;5006189;28;20683;-76
2022/04/19 08:36:46;;;;;;;9.90;8.37;;;12.60;99.90;;;;;;5016466;28;20687;-75
2022/04/19 08:39:14;;;;;;;13.07;7.78;;;12.70;99.90;;;;;;5001987;28;20927;-74
2022/04/19 08:41:41;;;;;;;11.23;8.90;;;12.80;99.90;;;;;;5020065;28;20284;-77
2022/04/19 08:44:11;;;;;;;12.05;7.82;;;12.80;99.90;;;;;;5009481;28;20785;-77
2022/04/19 08:46:39;;;;;;;10.63;8.90;;;12.80;99.90;;;;;;5006895;28;20201;-77
2022/04/19 08:49:06;;;;;;;16.50;8.53;;;12.80;99.90;;;;;;5010232;28;20688;-75
2022/04/19 08:51:35;;;;;;;12.47;8.57;;;12.80;99.90;;;;;;5008788;28;20208;-80
2022/04/19 08:59:33;;;;;;;9.32;8.05;;;12.70;99.90;;;;;;5009485;28;20207;-77
2022/04/19 09:02:01;;;;;;;12.50;8.30;;;12.80;99.90;;;;;;5009923;28;20208;-79
2022/04/19 09:04:28;;;;;;;10.88;8.13;;;12.90;99.90;;;;;;4998196;28;20240;-76
2022/04/19 09:06:57;;;;;;;9.23;7.55;;;13.00;99.90;;;;;;4998550;28;20577;-78
2022/04/19 09:09:25;;;;;;;12.57;7.97;;;13.00;99.90;;;;;;5007102;28;20213;-78
2022/04/19 09:11:53;;;;;;;10.40;7.75;;;13.00;99.90;;;;;;5009120;28;20623;-80
2022/04/19 09:14:22;;;;;;;13.85;9.45;;;12.90;99.90;;;;;;5004291;28;20212;-78
2022/04/19 09:17:03;;;;;;;20.85;9.95;;;12.90;99.90;;;;;;4999745;28;20641;-76
2022/04/19 09:19:30;;;;;;;14.18;9.13;;;12.80;99.90;;;;;;5001110;28;20263;-76
2022/04/19 09:21:58;;;;;;;11.70;8.68;;;13.00;99.90;;;;;;5008535;28;20208;-77
2022/04/19 09:24:26;;;;;;;11.63;8.88;;;12.90;99.90;;;;;;5008612;28;20224;-80
2022/04/19 09:26:53;;;;;;;9.40;8.25;;;12.80;99.90;;;;;;5003327;28;20256;-78
2022/04/19 09:29:22;;;;;;;11.23;8.65;;;12.90;99.90;;;;;;4996799;28;20209;-79
2022/04/19 09:31:54;;;;;;;12.60;9.05;;;13.00;99.90;;;;;;4999368;28;20204;-77
2022/04/19 09:34:29;;;;;;;13.15;10.38;;;12.90;99.90;;;;;;4992913;28;20216;-77
2022/04/19 09:37:10;;;;;;;12.10;9.27;;;13.00;99.90;;;;;;5005249;28;20214;-77
2022/04/19 09:39:37;;;;;;;11.07;8.57;;;13.10;99.90;;;;;;5000983;28;20207;-80
2022/04/19 09:42:06;;;;;;;13.45;9.52;;;13.20;99.90;;;;;;5005378;28;20212;-81
2022/04/19 09:44:38;;;;;;;16.85;8.77;;;13.10;99.90;;;;;;5007573;28;20631;-74
2022/04/19 09:47:08;;;;;;;12.73;8.50;;;13.10;99.90;;;;;;5012127;28;20634;-75
2022/04/19 09:49:45;;;;;;;15.45;8.80;;;13.20;99.90;;;;;;5007432;28;20262;-76
2022/04/19 09:52:36;;;;;;;19.65;10.75;;;13.30;99.90;;;;;;5009561;28;20219;-78
2022/04/19 09:55:05;;;;;;;14.23;9.85;;;13.20;99.90;;;;;;5009927;28;20204;-74
2022/04/19 09:57:33;;;;;;;14.15;10.13;;;13.10;99.90;;;;;;5010785;28;20209;-77
2022/04/19 10:00:01;;;;;;;14.93;9.23;;;13.00;99.90;;;;;;5011309;28;20647;-77
2022/04/19 10:08:19;;;;;;;12.88;7.95;;;13.10;99.90;;;;;;5002772;28;20204;-75
2022/04/19 10:10:47;;;;;;;13.63;8.27;;;13.30;99.90;;;;;;5006319;28;20208;-78
2022/04/19 10:13:14;;;;;;;10.45;9.15;;;13.50;99.90;;;;;;5009456;28;20290;-78
2022/04/19 10:15:42;;;;;;;12.45;8.98;;;13.40;99.90;;;;;;5007853;28;20219;-79
2022/04/19 10:18:12;;;;;;;10.68;8.32;;;13.20;99.90;;;;;;5007269;28;20235;-79
2022/04/19 10:20:43;;;;;;;9.38;7.85;;;13.30;99.90;;;;;;5008770;28;20323;-80
2022/04/19 10:23:11;;;;;;;8.52;7.30;;;13.30;99.90;;;;;;5004234;28;20555;-78
2022/04/19 10:25:44;;;;;;;10.85;9.43;;;13.40;99.90;;;;;;5010985;28;20232;-77
2022/04/19 10:28:12;;;;;;;8.60;7.70;;;13.20;99.90;;;;;;5010479;28;20254;-80
2022/04/19 10:30:47;;;;;;;11.18;8.13;;;13.20;99.90;;;;;;5009600;28;20259;-77
2022/04/19 10:33:48;;;;;;;9.75;8.35;;;13.40;99.90;;;;;;4991133;28;20680;-75
2022/04/19 10:36:35;;;;;;;9.73;8.57;;;13.30;99.90;;;;;;4991677;28;20672;-79
2022/04/19 10:39:23;;;;;;;11.15;8.02;;;13.30;99.90;;;;;;4997357;28;20211;-80
2022/04/19 10:41:56;;;;;;;9.38;7.80;;;13.30;99.90;;;;;;5007620;28;20208;-82
2022/04/19 10:44:34;;;;;;;9.50;7.80;;;13.30;99.90;;;;;;5001287;28;20212;-78
2022/04/19 10:47:15;;;;;;;9.55;7.18;;;13.30;99.90;;;;;;5011148;28;20223;-83
2022/04/19 10:49:58;;;;;;;8.57;7.60;;;13.60;99.90;;;;;;5010699;28;20570;-86
2022/04/19 10:52:47;;;;;;;8.52;7.57;;;14.30;99.90;;;;;;5002347;28;20212;-79
2022/04/19 10:55:27;;;;;;;8.05;6.75;;;15.20;99.90;;;;;;5001900;28;20597;-78
2022/04/19 10:58:20;;;;;;;9.30;7.07;;;15.70;99.90;;;;;;5003395;28;20278;-79
2022/04/19 11:00:51;;;;;;;8.93;8.05;;;15.40;99.90;;;;;;4999252;28;20290;-78
2022/04/19 11:03:20;;;;;;;8.45;7.65;;;15.10;99.90;;;;;;5008585;28;20211;-75
2022/04/19 11:05:50;;;;;;;8.57;7.68;;;14.80;99.90;;;;;;5027101;28;20787;-84
2022/04/19 11:08:38;;;;;;;9.27;7.65;;;14.70;99.90;;;;;;5016726;28;20207;-84
2022/04/19 11:11:23;;;;;;;8.45;7.30;;;14.50;99.90;;;;;;4998789;28;20211;-79
2022/04/19 11:14:21;;;;;;;9.73;7.95;;;14.30;99.90;;;;;;4997276;28;20699;-88
2022/04/19 11:16:50;;;;;;;11.00;8.00;;;14.20;99.90;;;;;;5014246;28;20721;-84
2022/04/19 11:19:20;;;;;;;11.05;7.65;;;14.10;99.90;;;;;;5022494;28;20220;-78
2022/04/19 11:21:55;;;;;;;9.38;8.00;;;14.10;99.90;;;;;;5001602;28;20291;-88
2022/04/19 11:24:59;;;;;;;9.98;8.77;;;14.20;99.90;;;;;;5009117;28;20220;-80
2022/04/19 11:28:08;;;;;;;9.88;7.57;;;14.10;99.90;;;;;;4999195;28;20211;-86
2022/04/19 11:30:36;;;;;;;10.95;7.35;;;14.10;99.90;;;;;;5003854;28;20209;-80
2022/04/19 11:33:04;;;;;;;8.32;7.13;;;14.10;99.90;;;;;;4998680;28;20204;-73
2022/04/19 11:35:32;;;;;;;10.57;7.57;;;13.90;99.90;;;;;;5007025;28;20235;-83
2022/04/19 11:38:04;;;;;;;12.60;8.25;;;13.90;99.90;;;;;;4998506;28;20208;-74
2022/04/19 11:48:50;;;;;;;11.90;8.32;;;14.10;99.90;;;;;;5008998;28;20279;-77
2022/04/19 11:51:19;;;;;;;10.98;7.25;;;14.20;99.90;;;;;;4996448;28;20680;-74
2022/04/19 11:53:49;;;;;;;8.50;7.53;;;14.20;99.90;;;;;;5005846;28;20251;-80
2022/04/19 11:56:16;;;;;;;8.38;6.32;;;14.10;99.90;;;;;;4997044;28;20205;-76
2022/04/19 11:58:47;;;;;;;8.90;6.95;;;14.10;99.90;;;;;;5003962;28;20300;-73
2022/04/19 12:01:14;;;;;;;8.55;7.43;;;14.10;99.90;;;;;;5002596;28;20738;-72
2022/04/19 12:03:42;;;;;;;8.20;6.80;;;14.10;99.90;;;;;;5010977;28;20209;-87
2022/04/19 12:06:11;;;;;;;7.82;7.03;;;14.10;99.90;;;;;;5013170;28;20717;-84
2022/04/19 12:08:40;;;;;;;11.05;8.15;;;14.00;99.90;;;;;;5014469;28;20603;-83
2022/04/19 12:11:10;;;;;;;9.10;7.53;;;14.00;99.90;;;;;;5013381;28;20217;-80
2022/04/19 12:13:38;;;;;;;10.88;8.05;;;14.00;99.90;;;;;;5012149;28;20200;-78
2022/04/19 12:16:08;;;;;;;8.60;6.28;;;13.90;99.90;;;;;;5021870;28;20216;-77
2022/04/19 12:18:36;;;;;;;8.88;7.28;;;13.90;99.90;;;;;;5011221;28;20594;-75
2022/04/19 12:21:05;;;;;;;12.75;7.63;;;13.80;99.90;;;;;;4993791;28;20268;-77
2022/04/19 12:23:34;;;;;;;9.85;8.15;;;13.70;99.90;;;;;;5014315;28;20624;-83
2022/04/19 12:26:06;;;;;;;8.35;6.75;;;13.60;99.90;;;;;;5033058;28;20250;-78
2022/04/19 12:28:41;;;;;;;11.68;7.05;;;13.90;99.90;;;;;;5022577;28;20196;-81
2022/04/19 12:31:08;;;;;;;8.95;7.13;;;14.00;99.90;;;;;;5012623;28;20809;-85
2022/04/19 12:33:37;;;;;;;12.27;8.75;;;14.00;99.90;;;;;;5002634;28;20263;-82
2022/04/19 12:36:12;;;;;;;7.15;6.45;;;13.90;99.90;;;;;;5010152;28;20209;-84
2022/04/19 12:38:39;;;;;;;7.63;6.72;;;13.90;99.90;;;;;;5013276;28;20214;-80
2022/04/19 12:41:16;;;;;;;10.13;6.88;;;13.90;99.90;;;;;;5012892;28;20212;-79
2022/04/19 12:43:47;;;;;;;9.48;8.23;;;14.00;99.90;;;;;;5010724;28;20259;-79
2022/04/19 12:46:14;;;;;;;9.70;7.00;;;14.00;99.90;;;;;;5007986;28;20409;-78
2022/04/19 12:48:52;;;;;;;8.40;6.55;;;14.10;99.90;;;;;;5003467;28;20236;-77
2022/04/19 12:51:24;;;;;;;7.78;6.32;;;14.20;99.90;;;;;;5008343;28;20291;-78
2022/04/19 12:54:05;;;;;;;9.23;7.85;;;14.20;99.90;;;;;;5017250;28;20214;-75
2022/04/19 12:56:32;;;;;;;14.15;7.80;;;14.20;99.90;;;;;;5007421;28;20234;-77
2022/04/19 12:59:02;;;;;;;9.95;7.18;;;14.20;99.90;;;;;;5012384;28;20204;-77
2022/04/19 13:01:29;;;;;;;10.65;7.43;;;14.00;99.90;;;;;;5012883;28;20266;-75
2022/04/19 13:03:55;;;;;;;9.80;6.28;;;13.90;99.90;;;;;;5011859;28;20219;-76
2022/04/19 13:14:37;;;;;;;13.65;7.35;;;13.80;99.90;;;;;;5010699;28;20635;-73
2022/04/19 13:17:05;;;;;;;11.68;7.00;;;13.80;99.90;;;;;;5021486;28;20208;-72
2022/04/19 13:19:32;;;;;;;11.90;7.30;;;13.80;99.90;;;;;;5012377;28;20200;-73
2022/04/19 13:21:59;;;;;;;7.65;5.95;;;13.70;99.90;;;;;;5030078;28;20215;-74
2022/04/19 13:24:26;;;;;;;9.77;6.97;;;13.80;99.90;;;;;;5016052;28;20204;-72
2022/04/19 13:26:53;;;;;;;10.50;7.18;;;13.70;99.90;;;;;;5012693;28;20239;-71
2022/04/19 13:29:20;;;;;;;6.95;5.63;;;13.60;99.90;;;;;;5006440;28;20208;-71
2022/04/19 13:31:48;;;;;;;8.65;5.75;;;13.60;99.90;;;;;;5011769;28;20567;-75
2022/04/19 13:34:15;;;;;;;12.25;6.65;;;13.50;99.90;;;;;;5001248;28;20208;-75
2022/04/19 13:36:43;;;;;;;9.38;6.28;;;13.50;99.90;;;;;;5008995;28;20262;-74
2022/04/19 13:39:10;;;;;;;13.05;6.13;;;13.50;99.90;;;;;;5006844;28;20219;-75
2022/04/19 13:41:41;;;;;;;8.50;5.57;;;13.60;99.90;;;;;;5012138;28;20200;-74